Time;durP1;ratioP1;P1;durP2;ratioP2;P2;SDS_P1;SDS_P2;PMS_P1;PMS_P2;Temp;Humidity;BMP_temperature;BMP_pressure;BME280_temperature;BME280_humidity;BME280_pressure;Samples;Min_cycle;Max_cycle;Signal;HPM_P1;HPM_P2
2022/11/18 00:00:41;;;;;;;9.13;2.75;;;15.10;99.90;;;;;;5013708;28;20375;-66
2022/11/18 00:03:46;;;;;;;18.98;2.60;;;15.00;99.90;;;;;;5013318;28;20045;-66
2022/11/18 00:06:50;;;;;;;11.25;2.40;;;14.90;99.90;;;;;;5014005;28;20056;-66
2022/11/18 00:09:54;;;;;;;11.45;1.95;;;14.90;99.90;;;;;;5012435;28;20049;-66
2022/11/18 00:16:23;;;;;;;11.00;3.13;;;14.90;99.90;;;;;;5013845;28;20527;-66
2022/11/18 00:26:16;;;;;;;;;;;14.90;99.90;;;;;;5014117;28;20057;-67
2022/11/18 00:29:20;;;;;;;15.60;3.05;;;14.90;99.90;;;;;;5013224;28;20402;-66
2022/11/18 00:32:25;;;;;;;9.25;2.17;;;14.90;99.90;;;;;;5013331;28;20365;-66
2022/11/18 00:35:29;;;;;;;9.30;2.47;;;15.00;99.90;;;;;;5012713;28;20041;-66
2022/11/18 00:42:52;;;;;;;12.93;2.65;;;15.10;99.90;;;;;;5012928;28;20036;-66
2022/11/18 00:45:57;;;;;;;6.60;2.10;;;15.10;99.90;;;;;;5013177;28;20049;-66
2022/11/18 00:49:02;;;;;;;9.27;2.45;;;15.10;99.90;;;;;;5013046;28;20385;-67
2022/11/18 00:52:06;;;;;;;18.95;2.17;;;15.20;99.90;;;;;;5013037;28;20500;-66
2022/11/18 00:55:10;;;;;;;13.18;2.28;;;15.30;99.90;;;;;;5012986;28;20045;-66
2022/11/18 00:58:34;;;;;;;12.85;2.45;;;15.30;99.90;;;;;;5012908;28;20045;-67
2022/11/18 01:01:57;;;;;;;17.27;2.35;;;15.30;99.90;;;;;;5013569;28;20064;-66
2022/11/18 01:05:02;;;;;;;10.15;2.47;;;15.30;99.90;;;;;;5012291;28;20515;-66
2022/11/18 01:08:07;;;;;;;15.90;2.45;;;15.30;99.90;;;;;;5012728;28;20492;-67
2022/11/18 01:14:34;;;;;;;10.23;2.78;;;15.30;99.90;;;;;;5011978;28;20057;-67
2022/11/18 01:17:38;;;;;;;10.20;2.17;;;15.40;99.90;;;;;;5012357;28;20045;-66
2022/11/18 01:20:43;;;;;;;11.15;2.15;;;15.40;99.90;;;;;;5010972;28;20065;-67
2022/11/18 01:23:48;;;;;;;9.13;1.90;;;15.40;99.90;;;;;;5012075;28;20045;-67
2022/11/18 01:26:51;;;;;;;30.80;4.47;;;15.40;99.90;;;;;;5012491;28;20402;-66
2022/11/18 01:29:55;;;;;;;11.82;2.22;;;15.40;99.90;;;;;;5012257;28;20500;-66
2022/11/18 01:33:00;;;;;;;15.80;2.97;;;15.30;99.90;;;;;;5012082;28;20040;-67
2022/11/18 01:36:26;;;;;;;9.98;2.53;;;15.10;99.90;;;;;;5012044;28;20045;-67
2022/11/18 01:39:30;;;;;;;10.52;3.28;;;14.80;99.90;;;;;;5011871;28;20053;-67
2022/11/18 01:42:52;;;;;;;;;;;14.70;99.90;;;;;;5012664;28;20413;-66
2022/11/18 01:46:15;;;;;;;11.63;2.42;;;14.60;99.90;;;;;;5012200;28;19920;-67
2022/11/18 01:49:19;;;;;;;;;;;14.70;99.90;;;;;;5012250;28;20049;-67
2022/11/18 01:53:28;;;;;;;15.52;3.20;;;14.70;99.90;;;;;;5011954;28;19925;-67
2022/11/18 01:56:41;;;;;;;8.70;3.20;;;14.70;99.90;;;;;;5012052;28;20041;-67
2022/11/18 01:59:49;;;;;;;10.38;2.97;;;14.60;99.90;;;;;;5011924;28;20041;-68
2022/11/18 02:02:53;;;;;;;13.48;3.28;;;14.60;99.90;;;;;;5011898;28;20037;-68
2022/11/18 02:05:59;;;;;;;11.30;3.30;;;14.70;99.90;;;;;;5011847;28;20053;-68
2022/11/18 02:09:04;;;;;;;18.20;3.35;;;14.70;99.90;;;;;;5011784;28;20385;-68
2022/11/18 02:12:08;;;;;;;16.10;3.70;;;14.70;99.90;;;;;;5011339;28;20507;-68
2022/11/18 02:15:16;;;;;;;22.23;5.43;;;14.70;99.90;;;;;;5010455;28;20512;-68
2022/11/18 02:18:38;;;;;;;13.27;3.50;;;14.60;99.90;;;;;;5011635;28;20041;-69
2022/11/18 02:22:16;;;;;;;19.08;3.75;;;14.70;99.90;;;;;;5011408;28;20045;-68
2022/11/18 02:25:23;;;;;;;7.53;3.08;;;14.60;99.90;;;;;;5011090;28;20054;-69
2022/11/18 02:28:53;;;;;;;14.70;3.50;;;14.60;99.90;;;;;;5011227;28;20045;-68
2022/11/18 02:32:10;;;;;;;11.20;3.00;;;14.70;99.90;;;;;;5011260;28;20049;-68
2022/11/18 02:35:38;;;;;;;13.68;3.42;;;14.60;99.90;;;;;;5015067;28;20060;-69
2022/11/18 02:38:52;;;;;;;10.07;2.80;;;14.60;99.90;;;;;;5015273;28;20393;-68
2022/11/18 02:41:57;;;;;;;7.78;2.88;;;14.60;99.90;;;;;;5015471;28;20504;-68
2022/11/18 02:45:09;;;;;;;7.18;2.42;;;14.60;99.90;;;;;;5014990;28;20049;-68
2022/11/18 02:48:14;;;;;;;;;;;14.60;99.90;;;;;;5015765;28;20049;-68
2022/11/18 02:51:24;;;;;;;10.60;2.78;;;14.60;99.90;;;;;;5015167;28;20399;-68
2022/11/18 02:54:28;;;;;;;10.20;3.05;;;14.60;99.90;;;;;;5014343;28;20045;-68
2022/11/18 02:57:35;;;;;;;9.90;2.80;;;14.60;99.90;;;;;;5015208;28;20049;-68
2022/11/18 03:00:39;;;;;;;11.45;2.83;;;14.60;99.90;;;;;;5014690;28;20052;-68
2022/11/18 03:03:44;;;;;;;9.05;2.30;;;14.50;99.90;;;;;;5014594;28;20037;-68
2022/11/18 03:07:04;;;;;;;5.45;2.30;;;14.50;99.90;;;;;;5014945;28;20049;-68
2022/11/18 03:10:08;;;;;;;5.93;1.50;;;14.40;99.90;;;;;;5014914;28;20048;-68
2022/11/18 03:13:44;;;;;;;9.38;2.55;;;14.60;99.90;;;;;;5014635;28;20396;-68
2022/11/18 03:17:00;;;;;;;10.70;1.67;;;14.50;99.90;;;;;;5014937;28;20041;-69
2022/11/18 03:20:35;;;;;;;6.47;1.80;;;14.50;99.90;;;;;;5014752;28;20061;-68
2022/11/18 03:23:42;;;;;;;5.70;1.50;;;14.60;99.90;;;;;;5014113;28;20041;-68
2022/11/18 03:26:52;;;;;;;9.13;1.50;;;14.50;99.90;;;;;;5014664;28;20102;-68
2022/11/18 03:30:05;;;;;;;5.72;1.65;;;14.50;99.90;;;;;;5013591;28;20049;-68
2022/11/18 03:33:14;;;;;;;6.18;1.70;;;14.60;99.90;;;;;;5014261;28;20052;-68
2022/11/18 03:36:23;;;;;;;6.00;1.60;;;14.60;99.90;;;;;;5014128;28;20041;-68
2022/11/18 03:39:31;;;;;;;9.98;1.83;;;14.60;99.90;;;;;;5014257;28;20045;-67
2022/11/18 03:42:41;;;;;;;6.25;1.73;;;14.60;99.90;;;;;;5013962;28;20048;-68
2022/11/18 03:45:49;;;;;;;8.57;1.55;;;14.60;99.90;;;;;;5014318;28;20048;-68
2022/11/18 03:48:55;;;;;;;6.47;1.92;;;14.50;99.90;;;;;;5013922;28;20048;-68
2022/11/18 03:52:09;;;;;;;9.93;1.83;;;14.50;99.90;;;;;;5014260;28;20048;-68
2022/11/18 03:55:40;;;;;;;7.30;1.52;;;14.50;99.90;;;;;;5013453;28;20121;-68
2022/11/18 03:59:01;;;;;;;11.18;2.25;;;14.60;99.90;;;;;;5014118;28;20053;-68
2022/11/18 04:02:18;;;;;;;7.93;1.77;;;14.70;99.90;;;;;;5013942;28;20064;-67
2022/11/18 04:05:25;;;;;;;6.90;1.80;;;14.70;99.90;;;;;;5013500;28;20061;-68
2022/11/18 04:08:37;;;;;;;5.93;1.63;;;14.80;99.90;;;;;;5013734;28;20052;-68
2022/11/18 04:12:02;;;;;;;6.18;2.10;;;14.90;99.90;;;;;;5013486;28;20041;-68
2022/11/18 04:15:07;;;;;;;13.35;1.90;;;14.90;99.90;;;;;;5013115;28;20037;-68
2022/11/18 04:18:11;;;;;;;15.10;2.53;;;14.90;99.90;;;;;;5013758;28;20041;-68
2022/11/18 04:21:16;;;;;;;10.85;2.08;;;15.00;99.90;;;;;;5013777;28;20049;-68
2022/11/18 04:24:20;;;;;;;9.85;2.38;;;14.80;99.90;;;;;;5012080;28;20060;-68
2022/11/18 04:27:24;;;;;;;17.58;3.17;;;14.80;99.90;;;;;;5013555;28;20053;-69
2022/11/18 04:44:54;;;;;;;4.50;1.50;;;13.60;99.90;;;;;;5030607;28;20044;-69
2022/11/18 04:47:59;;;;;;;7.93;1.90;;;13.50;99.90;;;;;;5030342;28;20045;-69
2022/11/18 04:51:04;;;;;;;6.90;2.13;;;13.50;99.90;;;;;;5021845;28;20052;-70
2022/11/18 04:54:09;;;;;;;6.70;1.77;;;13.50;99.90;;;;;;5012284;28;20044;-69
2022/11/18 04:57:31;;;;;;;8.45;2.40;;;13.50;99.90;;;;;;5012541;28;20044;-69
2022/11/18 05:00:36;;;;;;;9.30;2.53;;;13.40;99.90;;;;;;5012652;28;20045;-68
2022/11/18 05:03:40;;;;;;;14.88;3.45;;;13.40;99.90;;;;;;5011991;28;20053;-69
2022/11/18 05:06:44;;;;;;;7.47;1.60;;;13.30;99.90;;;;;;5012960;28;20052;-68
2022/11/18 05:09:50;;;;;;;4.97;2.30;;;13.20;99.90;;;;;;5012360;28;20049;-69
2022/11/18 05:12:54;;;;;;;9.10;1.30;;;13.20;99.90;;;;;;5012602;28;20068;-68
2022/11/18 05:16:00;;;;;;;8.70;1.15;;;13.10;99.90;;;;;;5012658;28;20512;-69
2022/11/18 05:19:05;;;;;;;5.15;1.20;;;13.10;99.90;;;;;;5012523;28;20049;-69
2022/11/18 05:22:09;;;;;;;6.72;1.77;;;13.10;99.90;;;;;;5012553;28;20385;-69
2022/11/18 05:28:37;;;;;;;4.00;1.02;;;13.20;99.90;;;;;;5012087;28;20049;-69
2022/11/18 05:31:41;;;;;;;10.35;1.50;;;13.50;99.90;;;;;;5011328;28;20044;-69
2022/11/18 05:38:28;;;;;;;8.98;1.42;;;13.50;99.90;;;;;;5012137;28;20037;-68
2022/11/18 05:44:55;;;;;;;4.53;1.00;;;13.30;99.90;;;;;;5012058;28;20045;-69
2022/11/18 05:48:03;;;;;;;6.38;1.42;;;13.20;99.90;;;;;;5012132;28;20048;-69
2022/11/18 05:51:07;;;;;;;6.43;1.20;;;13.20;99.90;;;;;;5012092;28;20049;-68
2022/11/18 05:54:13;;;;;;;7.10;1.48;;;13.20;99.90;;;;;;5012074;28;20045;-68
2022/11/18 05:57:35;;;;;;;5.18;1.40;;;13.10;99.90;;;;;;5012154;28;20060;-68
2022/11/18 06:00:42;;;;;;;9.25;2.03;;;13.10;99.90;;;;;;5011817;28;20033;-69
2022/11/18 06:03:46;;;;;;;8.43;1.85;;;13.00;99.90;;;;;;5011634;28;20041;-69
2022/11/18 06:06:58;;;;;;;10.65;1.92;;;12.90;99.90;;;;;;5011667;28;20057;-68
2022/11/18 06:10:04;;;;;;;14.98;1.92;;;12.90;99.90;;;;;;5011864;28;20037;-67
2022/11/18 06:13:15;;;;;;;14.88;2.08;;;13.00;99.90;;;;;;5011913;28;20049;-68
2022/11/18 06:16:41;;;;;;;13.25;2.17;;;12.90;99.90;;;;;;5011665;28;20041;-68
2022/11/18 06:19:45;;;;;;;11.80;2.25;;;13.00;99.90;;;;;;5011893;28;20045;-67
2022/11/18 06:22:53;;;;;;;18.38;2.30;;;12.90;99.90;;;;;;5011767;28;20045;-68
2022/11/18 06:25:57;;;;;;;20.70;3.25;;;13.00;99.90;;;;;;5011873;28;20515;-68
2022/11/18 06:29:05;;;;;;;14.18;3.10;;;13.20;99.90;;;;;;5011631;28;20048;-68
2022/11/18 06:32:09;;;;;;;23.92;3.03;;;13.20;99.90;;;;;;5011724;28;20049;-68
2022/11/18 06:35:14;;;;;;;20.00;2.85;;;13.30;99.90;;;;;;5011344;28;20049;-69
2022/11/18 06:38:22;;;;;;;14.50;3.05;;;13.40;99.90;;;;;;5012262;28;20044;-70
2022/11/18 06:41:26;;;;;;;14.05;2.38;;;13.70;99.90;;;;;;5011334;28;20060;-69
2022/11/18 06:44:30;;;;;;;14.30;2.47;;;13.50;99.90;;;;;;5010801;28;20045;-69
2022/11/18 06:47:34;;;;;;;14.38;2.10;;;13.60;99.90;;;;;;5011192;28;20049;-69
2022/11/18 06:51:18;;;;;;;20.55;3.63;;;13.60;99.90;;;;;;5011378;28;20041;-69
2022/11/18 06:54:23;;;;;;;17.85;3.08;;;13.80;99.90;;;;;;5009966;28;20041;-69
2022/11/18 06:57:28;;;;;;;18.48;2.90;;;13.80;99.90;;;;;;5011072;28;20045;-69
2022/11/18 07:00:32;;;;;;;16.65;2.60;;;13.80;99.90;;;;;;5011112;28;20396;-69
2022/11/18 07:03:36;;;;;;;17.08;3.00;;;13.80;99.90;;;;;;5009505;28;20472;-69
2022/11/18 07:06:40;;;;;;;17.63;2.70;;;13.90;99.90;;;;;;5007780;28;20041;-68
2022/11/18 07:09:44;;;;;;;12.80;2.30;;;14.10;99.90;;;;;;5006391;28;20045;-69
2022/11/18 07:12:48;;;;;;;14.55;2.60;;;14.30;99.90;;;;;;5010736;28;20069;-68
2022/11/18 07:15:52;;;;;;;18.58;2.60;;;14.30;99.90;;;;;;5000154;28;20037;-69
2022/11/18 07:18:57;;;;;;;16.70;2.72;;;14.20;99.90;;;;;;5008497;28;20064;-69
2022/11/18 07:22:01;;;;;;;24.50;3.60;;;13.90;99.90;;;;;;5012846;28;20048;-69
2022/11/18 07:25:23;;;;;;;13.10;2.38;;;13.60;99.90;;;;;;5014048;28;20060;-68
2022/11/18 07:28:28;;;;;;;10.32;2.20;;;13.50;99.90;;;;;;5010249;28;20037;-69
2022/11/18 07:34:55;;;;;;;13.38;2.38;;;13.80;99.90;;;;;;5014187;28;20036;-68
2022/11/18 07:38:00;;;;;;;16.65;2.50;;;14.10;99.90;;;;;;5015167;28;20044;-69
2022/11/18 07:41:10;;;;;;;16.30;2.53;;;14.30;99.90;;;;;;5014563;28;20641;-69
2022/11/18 07:44:33;;;;;;;10.07;2.10;;;14.40;99.90;;;;;;5014090;28;20041;-69
2022/11/18 07:47:38;;;;;;;19.00;2.58;;;14.40;99.90;;;;;;5014229;28;20061;-69
2022/11/18 08:01:08;;;;;;;11.75;2.25;;;14.00;99.90;;;;;;4995263;28;20614;-69
2022/11/18 08:04:15;;;;;;;13.47;2.40;;;13.80;99.90;;;;;;5011865;28;20057;-69
2022/11/18 08:07:19;;;;;;;12.90;2.03;;;13.80;99.90;;;;;;5003554;28;20056;-69
2022/11/18 08:10:23;;;;;;;9.82;2.25;;;13.80;99.90;;;;;;5013117;28;20040;-69
2022/11/18 08:13:28;;;;;;;17.90;2.55;;;13.90;99.90;;;;;;5013312;28;20045;-69
2022/11/18 08:16:32;;;;;;;13.13;2.53;;;13.90;99.90;;;;;;5013715;28;20041;-68
2022/11/18 08:19:36;;;;;;;17.98;4.05;;;13.90;99.90;;;;;;5013734;28;20040;-68
2022/11/18 08:22:41;;;;;;;17.27;2.67;;;14.00;99.90;;;;;;5007315;28;20397;-68
2022/11/18 08:25:46;;;;;;;13.88;4.20;;;14.10;99.90;;;;;;5008804;28;20057;-68
2022/11/18 08:28:50;;;;;;;16.13;4.28;;;14.20;99.90;;;;;;5009703;28;20045;-67
2022/11/18 08:31:54;;;;;;;38.15;5.40;;;14.30;99.90;;;;;;4992520;28;20041;-68
2022/11/18 08:34:58;;;;;;;25.38;3.30;;;14.60;99.90;;;;;;4993465;28;20049;-69
2022/11/18 08:38:03;;;;;;;16.67;2.90;;;15.20;99.90;;;;;;5002856;28;20037;-69
2022/11/18 08:41:09;;;;;;;12.25;2.47;;;16.20;99.90;;;;;;5006059;28;20045;-69
2022/11/18 08:44:15;;;;;;;22.13;3.17;;;19.70;99.90;;;;;;5012758;28;20041;-69
2022/11/18 08:47:19;;;;;;;9.98;2.15;;;20.50;99.90;;;;;;5013275;28;20037;-69
2022/11/18 08:50:23;;;;;;;12.18;2.70;;;20.30;99.90;;;;;;5013049;28;20109;-69
2022/11/18 08:53:27;;;;;;;21.50;3.83;;;20.20;99.90;;;;;;5012622;28;20072;-69
2022/11/18 08:56:31;;;;;;;16.45;2.95;;;19.10;99.90;;;;;;5012864;28;20037;-69
2022/11/18 08:59:50;;;;;;;13.63;3.10;;;18.60;99.90;;;;;;5012481;28;20050;-69
2022/11/18 09:02:54;;;;;;;12.60;2.97;;;18.20;99.90;;;;;;5012851;28;20045;-69
2022/11/18 09:06:23;;;;;;;17.15;2.78;;;17.80;99.90;;;;;;5012405;28;20041;-69
2022/11/18 09:09:27;;;;;;;17.10;2.50;;;17.50;99.90;;;;;;5009209;28;20044;-68
2022/11/18 09:12:32;;;;;;;14.07;2.33;;;18.10;99.90;;;;;;5012443;28;20041;-67
2022/11/18 09:15:36;;;;;;;20.83;3.50;;;19.70;99.90;;;;;;5011758;28;20048;-69
2022/11/18 09:18:40;;;;;;;14.13;2.10;;;20.00;99.90;;;;;;5012407;28;20048;-70
2022/11/18 09:21:44;;;;;;;12.82;2.45;;;20.20;99.90;;;;;;5012278;28;20393;-69
2022/11/18 09:24:48;;;;;;;14.68;2.78;;;21.00;99.90;;;;;;5012068;28;20045;-69
2022/11/18 09:27:54;;;;;;;11.98;2.72;;;21.50;99.90;;;;;;5012486;28;20048;-68
2022/11/18 09:30:57;;;;;;;12.45;2.10;;;21.60;99.90;;;;;;5012417;28;20053;-69
2022/11/18 09:34:01;;;;;;;10.32;2.38;;;22.20;99.90;;;;;;5011795;28;20053;-70
2022/11/18 09:37:05;;;;;;;9.38;2.08;;;23.20;99.90;;;;;;5012337;28;20045;-69
2022/11/18 09:40:17;;;;;;;10.32;2.72;;;23.10;99.90;;;;;;5011949;28;20045;-69
2022/11/18 09:43:26;;;;;;;12.80;2.40;;;22.60;99.90;;;;;;5008931;28;20045;-69
2022/11/18 09:46:45;;;;;;;17.40;2.70;;;21.80;99.90;;;;;;5010435;28;20041;-69
2022/11/18 09:49:50;;;;;;;18.58;3.60;;;20.40;99.90;;;;;;5011787;28;20045;-68
2022/11/18 09:53:05;;;;;;;16.55;3.20;;;19.50;99.90;;;;;;5008670;28;20041;-68
2022/11/18 09:56:15;;;;;;;18.17;2.70;;;18.90;99.90;;;;;;5009759;28;20413;-68
2022/11/18 09:59:29;;;;;;;10.40;2.28;;;18.50;99.90;;;;;;5010795;28;20044;-68
2022/11/18 10:02:50;;;;;;;12.57;2.72;;;18.60;99.90;;;;;;5007521;28;20073;-69
2022/11/18 10:06:03;;;;;;;9.85;1.95;;;19.80;99.90;;;;;;5009993;28;20048;-68
2022/11/18 10:09:26;;;;;;;9.15;1.67;;;21.60;99.90;;;;;;5005384;28;20045;-68
2022/11/18 10:13:11;;;;;;;12.48;2.38;;;23.70;99.90;;;;;;5008212;28;20488;-68
2022/11/18 10:16:31;;;;;;;9.50;1.95;;;25.40;99.90;;;;;;5009623;28;20044;-69
2022/11/18 10:19:44;;;;;;;15.90;2.40;;;24.90;99.90;;;;;;5006879;28;20069;-68
2022/11/18 10:23:06;;;;;;;14.00;2.05;;;23.30;99.90;;;;;;5009702;28;20400;-67
2022/11/18 10:26:12;;;;;;;10.73;1.98;;;24.10;99.90;;;;;;5007965;28;20049;-68
2022/11/18 10:29:16;;;;;;;8.25;1.90;;;25.50;99.90;;;;;;5011345;28;20504;-69
2022/11/18 10:32:20;;;;;;;8.82;1.95;;;28.00;98.00;;;;;;5010336;28;20048;-69
2022/11/18 10:35:31;;;;;;;11.05;2.67;;;29.70;96.40;;;;;;5024751;28;20056;-69
2022/11/18 10:38:35;;;;;;;9.00;2.35;;;27.50;95.80;;;;;;5009879;28;20384;-69
2022/11/18 10:41:47;;;;;;;9.40;2.45;;;27.60;94.60;;;;;;5002581;28;20049;-69
2022/11/18 10:44:51;;;;;;;9.60;2.28;;;25.90;96.90;;;;;;5020074;28;20032;-69
2022/11/18 10:48:18;;;;;;;17.90;2.50;;;26.60;96.30;;;;;;5003393;28;21065;-68
2022/11/18 10:51:23;;;;;;;9.95;2.60;;;24.90;94.70;;;;;;5006031;28;20041;-68
2022/11/18 10:54:27;;;;;;;10.52;1.90;;;22.30;97.60;;;;;;5012495;28;20049;-68
2022/11/18 10:57:38;;;;;;;8.85;1.55;;;23.30;99.10;;;;;;5014763;28;20551;-68
2022/11/18 11:00:48;;;;;;;12.30;2.25;;;25.60;97.20;;;;;;5014742;28;20130;-68
2022/11/18 11:04:15;;;;;;;5.18;1.80;;;26.30;95.00;;;;;;4995006;28;20050;-68
2022/11/18 11:07:30;;;;;;;8.48;2.17;;;24.90;97.70;;;;;;4995513;28;20069;-68
2022/11/18 11:10:34;;;;;;;10.43;1.73;;;25.20;97.60;;;;;;5012884;28;20040;-68
2022/11/18 11:13:42;;;;;;;9.70;2.22;;;24.70;95.40;;;;;;4997599;28;20049;-68
2022/11/18 11:17:07;;;;;;;12.88;2.03;;;23.10;98.20;;;;;;4997615;28;20045;-68
2022/11/18 11:20:22;;;;;;;13.75;2.25;;;21.50;99.60;;;;;;5013134;28;20053;-67
2022/11/18 11:23:27;;;;;;;10.73;2.67;;;20.60;99.90;;;;;;5014346;28;20049;-68
2022/11/18 11:26:49;;;;;;;8.05;1.90;;;22.30;99.40;;;;;;5014262;28;20048;-68
2022/11/18 11:29:59;;;;;;;10.05;1.90;;;22.10;98.40;;;;;;5013861;28;20045;-68
2022/11/18 11:33:53;;;;;;;6.47;1.55;;;21.60;98.10;;;;;;5013846;28;20057;-67
2022/11/18 11:37:13;;;;;;;10.13;1.75;;;21.70;98.40;;;;;;5011333;28;20048;-68
2022/11/18 11:40:40;;;;;;;10.13;1.70;;;23.30;95.80;;;;;;5014870;28;20044;-68
2022/11/18 11:44:17;;;;;;;8.25;1.83;;;20.10;99.50;;;;;;5014252;28;20057;-67
2022/11/18 11:48:03;;;;;;;8.80;2.35;;;20.30;99.00;;;;;;5012742;28;20045;-68
2022/11/18 11:51:38;;;;;;;7.28;1.58;;;20.10;99.00;;;;;;5010367;28;20037;-67
2022/11/18 11:54:57;;;;;;;10.52;1.88;;;18.40;99.90;;;;;;5010434;28;20052;-67
2022/11/18 11:58:30;;;;;;;15.07;2.22;;;17.70;99.90;;;;;;5011193;28;20049;-67
2022/11/18 12:02:00;;;;;;;11.05;1.85;;;17.50;99.90;;;;;;4994662;28;20053;-68
2022/11/18 12:05:14;;;;;;;12.75;1.83;;;17.40;99.90;;;;;;4999872;28;20037;-69
2022/11/18 12:08:18;;;;;;;9.02;1.77;;;17.30;99.90;;;;;;5014118;28;20037;-68
2022/11/18 12:11:28;;;;;;;9.27;2.00;;;17.00;99.90;;;;;;5014625;28;20504;-68
2022/11/18 12:14:49;;;;;;;12.98;1.85;;;16.60;99.90;;;;;;5012197;28;20060;-68
2022/11/18 12:18:21;;;;;;;9.77;2.10;;;16.50;99.90;;;;;;5013086;28;20037;-68
2022/11/18 12:21:44;;;;;;;11.45;2.97;;;16.30;99.90;;;;;;5004368;28;20049;-68
2022/11/18 12:24:47;;;;;;;14.57;2.22;;;16.30;99.90;;;;;;5012643;28;20041;-68
2022/11/18 12:27:59;;;;;;;12.82;2.08;;;16.30;99.90;;;;;;4994172;28;20046;-68
2022/11/18 12:31:22;;;;;;;;;;;16.20;99.90;;;;;;5012661;28;20114;-68
2022/11/18 12:34:40;;;;;;;10.75;1.95;;;16.20;99.90;;;;;;5012994;28;20269;-68
2022/11/18 12:37:51;;;;;;;10.48;2.15;;;16.30;99.90;;;;;;5013173;28;20045;-68
2022/11/18 12:40:54;;;;;;;16.15;2.47;;;16.60;99.90;;;;;;5013218;28;20037;-68
2022/11/18 12:43:59;;;;;;;11.27;1.92;;;16.80;99.90;;;;;;5012614;28;20048;-68
2022/11/18 12:47:07;;;;;;;12.82;2.22;;;16.50;99.90;;;;;;5013171;28;20048;-68
2022/11/18 12:50:14;;;;;;;16.02;3.42;;;16.50;99.90;;;;;;5012857;28;20048;-68
2022/11/18 12:53:38;;;;;;;11.48;2.45;;;16.60;99.90;;;;;;5012447;28;20393;-68
2022/11/18 12:56:48;;;;;;;21.98;4.72;;;16.70;99.90;;;;;;4999245;28;20044;-68
2022/11/18 12:59:53;;;;;;;19.60;3.05;;;16.60;99.90;;;;;;5016569;28;20129;-68
2022/11/18 13:03:00;;;;;;;10.57;2.03;;;16.80;99.90;;;;;;5018151;28;20044;-68
2022/11/18 13:06:13;;;;;;;13.85;2.40;;;16.80;99.90;;;;;;5021481;28;20056;-68
2022/11/18 13:09:23;;;;;;;14.90;2.53;;;16.70;99.90;;;;;;5017787;28;20053;-68
2022/11/18 13:12:31;;;;;;;;;;;16.90;99.90;;;;;;5016096;28;20056;-68
2022/11/18 13:19:04;;;;;;;16.38;3.10;;;16.50;99.90;;;;;;5018779;28;20045;-68
2022/11/18 13:25:44;;;;;;;12.10;2.25;;;16.60;99.90;;;;;;5023253;28;20048;-68
2022/11/18 13:29:12;;;;;;;14.95;2.58;;;17.00;99.90;;;;;;5009021;28;20049;-68
2022/11/18 13:32:26;;;;;;;16.13;2.95;;;17.20;99.90;;;;;;5018600;28;20044;-67
2022/11/18 13:35:30;;;;;;;13.77;2.60;;;17.30;99.90;;;;;;5006602;28;20045;-68
2022/11/18 13:38:34;;;;;;;13.00;3.03;;;17.40;99.90;;;;;;5019431;28;20064;-67
2022/11/18 13:41:38;;;;;;;11.02;2.75;;;17.50;99.90;;;;;;5020088;28;20049;-68
2022/11/18 13:44:52;;;;;;;14.25;2.85;;;17.50;99.90;;;;;;5011686;28;20037;-68
2022/11/18 13:48:23;;;;;;;15.70;2.70;;;17.50;99.90;;;;;;5016253;28;20045;-68
2022/11/18 13:51:28;;;;;;;11.65;2.55;;;17.30;99.90;;;;;;5016732;28;20043;-68
2022/11/18 13:54:33;;;;;;;11.70;3.25;;;17.20;99.90;;;;;;5016511;28;20044;-68
2022/11/18 13:57:38;;;;;;;11.57;3.00;;;17.00;99.90;;;;;;5019353;28;20044;-68
2022/11/18 14:00:42;;;;;;;13.35;3.47;;;17.30;99.90;;;;;;5018898;28;20377;-67
2022/11/18 14:03:49;;;;;;;18.75;3.17;;;17.40;99.90;;;;;;5011676;28;20060;-67
2022/11/18 14:07:24;;;;;;;14.57;3.65;;;17.40;99.90;;;;;;5027930;28;20048;-67
2022/11/18 14:10:42;;;;;;;12.38;4.15;;;17.60;99.90;;;;;;5015896;28;20495;-67
2022/11/18 14:13:58;;;;;;;16.20;3.42;;;17.90;99.90;;;;;;5017835;28;20380;-68
2022/11/18 14:17:24;;;;;;;19.50;3.50;;;18.00;99.90;;;;;;5011361;28;20041;-68
2022/11/18 14:20:29;;;;;;;9.40;2.90;;;17.60;99.90;;;;;;5031593;28;20041;-68
2022/11/18 14:23:36;;;;;;;10.68;3.15;;;17.80;99.90;;;;;;5024914;28;20053;-67
2022/11/18 14:26:41;;;;;;;7.63;2.90;;;17.80;99.90;;;;;;5010040;28;20049;-67
2022/11/18 14:29:49;;;;;;;13.63;3.05;;;17.60;99.90;;;;;;5017373;28;20051;-67
2022/11/18 14:33:05;;;;;;;11.45;2.88;;;17.40;99.90;;;;;;4993207;28;20062;-67
2022/11/18 14:36:14;;;;;;;9.30;2.80;;;17.30;99.90;;;;;;5019523;28;20389;-67
2022/11/18 14:39:30;;;;;;;8.60;3.17;;;17.20;99.90;;;;;;5009868;28;20037;-68
2022/11/18 14:42:34;;;;;;;8.98;2.83;;;17.20;99.90;;;;;;5013128;28;20397;-67
2022/11/18 14:45:39;;;;;;;5.10;2.50;;;17.10;99.90;;;;;;5004672;28;20053;-68
2022/11/18 14:48:44;;;;;;;9.25;2.33;;;17.40;99.90;;;;;;5014370;28;20037;-67
2022/11/18 14:51:50;;;;;;;6.45;2.20;;;18.30;99.90;;;;;;5002124;28;20041;-68
2022/11/18 14:54:54;;;;;;;11.95;2.78;;;19.00;99.90;;;;;;5020072;28;20048;-67
2022/11/18 14:57:59;;;;;;;6.88;2.97;;;19.60;99.90;;;;;;5011161;28;20414;-68
2022/11/18 15:01:08;;;;;;;9.68;2.63;;;19.80;99.90;;;;;;5013713;28;20041;-68
2022/11/18 15:04:15;;;;;;;8.07;2.80;;;19.90;99.90;;;;;;5009665;28;20401;-68
2022/11/18 15:07:19;;;;;;;10.82;2.50;;;19.80;99.90;;;;;;5017229;28;20036;-67
2022/11/18 15:10:23;;;;;;;11.50;2.78;;;19.60;99.90;;;;;;5005055;28;20041;-68
2022/11/18 15:13:27;;;;;;;12.13;2.97;;;19.20;99.90;;;;;;5005624;28;20037;-68
2022/11/18 15:16:33;;;;;;;12.35;2.38;;;18.70;99.90;;;;;;5012433;28;20045;-68
2022/11/18 15:19:39;;;;;;;12.10;3.40;;;18.10;99.90;;;;;;5004407;28;20052;-68
2022/11/18 15:22:43;;;;;;;10.75;3.05;;;17.70;99.90;;;;;;5002816;28;20041;-67
2022/11/18 15:25:48;;;;;;;13.00;3.65;;;17.30;99.90;;;;;;5026624;28;20041;-67
2022/11/18 15:28:55;;;;;;;14.27;3.28;;;16.90;99.90;;;;;;5012949;28;20044;-68
2022/11/18 15:32:00;;;;;;;11.70;3.22;;;16.60;99.90;;;;;;5023864;28;20399;-68
2022/11/18 15:35:04;;;;;;;15.23;3.65;;;16.30;99.90;;;;;;5013705;28;20045;-68
2022/11/18 15:38:12;;;;;;;9.35;2.63;;;16.10;99.90;;;;;;5017063;28;20041;-68
2022/11/18 15:41:24;;;;;;;10.85;3.45;;;15.90;99.90;;;;;;5019223;28;20519;-68
2022/11/18 15:44:28;;;;;;;14.27;3.60;;;15.80;99.90;;;;;;5015577;28;20044;-68
2022/11/18 15:47:33;;;;;;;18.02;3.35;;;15.70;99.90;;;;;;5024420;28;20041;-68
2022/11/18 15:50:37;;;;;;;17.98;3.78;;;15.60;99.90;;;;;;5028933;28;20048;-67
2022/11/18 15:53:42;;;;;;;14.60;3.25;;;15.50;99.90;;;;;;5023482;28;20033;-68
2022/11/18 15:56:45;;;;;;;11.65;2.72;;;15.40;99.90;;;;;;5021103;28;20496;-67
2022/11/18 15:59:49;;;;;;;10.38;3.33;;;15.30;99.90;;;;;;5015365;28;20381;-67
2022/11/18 16:02:55;;;;;;;9.48;3.05;;;15.30;99.90;;;;;;5021370;28;20053;-67
2022/11/18 16:05:59;;;;;;;9.63;3.30;;;15.20;99.90;;;;;;5014648;28;20504;-67
2022/11/18 16:09:05;;;;;;;15.15;3.95;;;15.20;99.90;;;;;;5024004;28;20052;-67
2022/11/18 16:15:46;;;;;;;;;;;15.00;99.90;;;;;;5020233;28;20405;-67
2022/11/18 16:19:00;;;;;;;14.38;3.72;;;15.00;99.90;;;;;;5017314;28;19916;-67
2022/11/18 16:22:04;;;;;;;8.88;3.78;;;14.90;99.90;;;;;;5013719;28;20044;-67
2022/11/18 16:25:08;;;;;;;16.48;3.60;;;14.90;99.90;;;;;;5022970;28;20044;-67
2022/11/18 16:28:12;;;;;;;18.70;3.72;;;14.80;99.90;;;;;;5029419;28;20701;-67
2022/11/18 16:34:40;;;;;;;23.65;3.70;;;14.80;99.90;;;;;;5005322;28;20057;-68
2022/11/18 16:37:43;;;;;;;18.83;3.65;;;14.80;99.90;;;;;;5014893;28;20041;-67
2022/11/18 16:40:57;;;;;;;18.58;3.40;;;14.80;99.90;;;;;;5020260;28;20041;-67
2022/11/18 16:44:04;;;;;;;18.63;3.35;;;14.80;99.90;;;;;;5006809;28;20060;-67
2022/11/18 16:47:11;;;;;;;19.25;2.88;;;14.80;99.90;;;;;;5025487;28;20040;-67
2022/11/18 16:50:15;;;;;;;14.40;3.60;;;14.80;99.90;;;;;;5032462;28;20045;-67
2022/11/18 16:53:18;;;;;;;16.90;3.25;;;14.90;99.90;;;;;;5030130;28;20044;-67
2022/11/18 16:56:25;;;;;;;16.80;2.80;;;14.80;99.90;;;;;;5008219;28;20053;-67
2022/11/18 16:59:30;;;;;;;20.38;2.92;;;14.80;99.90;;;;;;5011576;28;20496;-67
2022/11/18 17:02:34;;;;;;;21.17;3.70;;;14.80;99.90;;;;;;5014085;28;20041;-67
2022/11/18 17:05:40;;;;;;;14.63;4.28;;;14.80;99.90;;;;;;5024505;28;20044;-67
2022/11/18 17:08:44;;;;;;;20.02;4.93;;;14.80;99.90;;;;;;5015910;28;20041;-67
2022/11/18 17:11:52;;;;;;;14.23;4.25;;;14.90;99.90;;;;;;4993638;28;20037;-67
2022/11/18 17:14:55;;;;;;;17.58;3.10;;;14.90;99.90;;;;;;5006956;28;20547;-67
2022/11/18 17:18:00;;;;;;;17.90;3.50;;;14.90;99.90;;;;;;5014705;28;20056;-67
2022/11/18 17:21:07;;;;;;;20.70;3.60;;;14.80;99.90;;;;;;5008621;28;20037;-67
2022/11/18 17:24:17;;;;;;;16.15;3.33;;;14.60;99.90;;;;;;5021954;28;20053;-67
2022/11/18 17:27:21;;;;;;;15.70;3.00;;;14.70;99.90;;;;;;5012501;28;20041;-66
2022/11/18 17:30:26;;;;;;;15.27;2.85;;;14.60;99.90;;;;;;5012304;28;20053;-67